sensor_id;sensor_type;location;lat;lon;timestamp;temperature;humidity
16781;DHT22;8507;50.056;8.248;2022-07-10T00:02:11;16.80;99.90
16781;DHT22;8507;50.056;8.248;2022-07-10T00:04:37;16.70;99.90
16781;DHT22;8507;50.056;8.248;2022-07-10T00:07:03;16.60;99.90
16781;DHT22;8507;50.056;8.248;2022-07-10T00:09:29;16.50;99.90
16781;DHT22;8507;50.056;8.248;2022-07-10T00:11:55;16.50;99.90
16781;DHT22;8507;50.056;8.248;2022-07-10T00:14:20;16.50;99.90
16781;DHT22;8507;50.056;8.248;2022-07-10T00:16:46;16.50;99.90
16781;DHT22;8507;50.056;8.248;2022-07-10T00:19:12;16.60;99.90
16781;DHT22;8507;50.056;8.248;2022-07-10T00:21:38;16.60;99.90
16781;DHT22;8507;50.056;8.248;2022-07-10T00:24:04;16.60;99.90
16781;DHT22;8507;50.056;8.248;2022-07-10T00:26:29;16.50;99.90
16781;DHT22;8507;50.056;8.248;2022-07-10T00:28:55;16.60;99.90
16781;DHT22;8507;50.056;8.248;2022-07-10T00:31:21;16.60;99.90
16781;DHT22;8507;50.056;8.248;2022-07-10T00:33:47;16.60;99.90
16781;DHT22;8507;50.056;8.248;2022-07-10T00:36:13;16.60;99.90
16781;DHT22;8507;50.056;8.248;2022-07-10T00:38:39;16.50;99.90
16781;DHT22;8507;50.056;8.248;2022-07-10T00:41:05;16.50;99.90
16781;DHT22;8507;50.056;8.248;2022-07-10T00:43:54;16.50;99.90
16781;DHT22;8507;50.056;8.248;2022-07-10T00:46:20;16.40;99.90
16781;DHT22;8507;50.056;8.248;2022-07-10T00:48:47;16.40;99.90
16781;DHT22;8507;50.056;8.248;2022-07-10T00:51:14;16.40;99.90
16781;DHT22;8507;50.056;8.248;2022-07-10T00:53:40;16.30;99.90
16781;DHT22;8507;50.056;8.248;2022-07-10T00:56:06;16.30;99.90
16781;DHT22;8507;50.056;8.248;2022-07-10T00:58:33;16.20;99.90
16781;DHT22;8507;50.056;8.248;2022-07-10T01:01:00;16.20;99.90
16781;DHT22;8507;50.056;8.248;2022-07-10T01:03:26;16.20;99.90
16781;DHT22;8507;50.056;8.248;2022-07-10T01:05:52;16.20;99.90
16781;DHT22;8507;50.056;8.248;2022-07-10T01:08:17;16.20;99.90
16781;DHT22;8507;50.056;8.248;2022-07-10T01:10:44;16.20;99.90
16781;DHT22;8507;50.056;8.248;2022-07-10T01:13:10;16.10;99.90
16781;DHT22;8507;50.056;8.248;2022-07-10T01:15:37;16.20;99.90
16781;DHT22;8507;50.056;8.248;2022-07-10T01:18:03;16.00;99.90
16781;DHT22;8507;50.056;8.248;2022-07-10T01:20:32;16.10;99.90
16781;DHT22;8507;50.056;8.248;2022-07-10T01:22:58;16.10;99.90
16781;DHT22;8507;50.056;8.248;2022-07-10T01:25:23;15.90;99.90
16781;DHT22;8507;50.056;8.248;2022-07-10T01:27:50;15.90;99.90
16781;DHT22;8507;50.056;8.248;2022-07-10T01:30:16;16.00;99.90
16781;DHT22;8507;50.056;8.248;2022-07-10T01:32:43;16.00;99.90
16781;DHT22;8507;50.056;8.248;2022-07-10T01:35:09;16.00;99.90
16781;DHT22;8507;50.056;8.248;2022-07-10T01:37:35;16.00;99.90
16781;DHT22;8507;50.056;8.248;2022-07-10T01:40:01;16.10;99.90
16781;DHT22;8507;50.056;8.248;2022-07-10T01:42:27;16.20;99.90
16781;DHT22;8507;50.056;8.248;2022-07-10T01:44:52;16.30;99.90
16781;DHT22;8507;50.056;8.248;2022-07-10T01:47:19;16.20;99.90
16781;DHT22;8507;50.056;8.248;2022-07-10T01:49:44;16.20;99.90
16781;DHT22;8507;50.056;8.248;2022-07-10T01:52:10;16.20;99.90
16781;DHT22;8507;50.056;8.248;2022-07-10T01:54:36;16.20;99.90
16781;DHT22;8507;50.056;8.248;2022-07-10T01:57:01;16.10;99.90
16781;DHT22;8507;50.056;8.248;2022-07-10T01:59:27;16.10;99.90
16781;DHT22;8507;50.056;8.248;2022-07-10T02:01:53;16.10;99.90
16781;DHT22;8507;50.056;8.248;2022-07-10T02:04:18;15.90;99.90
16781;DHT22;8507;50.056;8.248;2022-07-10T02:07:03;15.90;99.90
16781;DHT22;8507;50.056;8.248;2022-07-10T02:09:28;15.80;99.90
16781;DHT22;8507;50.056;8.248;2022-07-10T02:11:54;15.80;99.90
16781;DHT22;8507;50.056;8.248;2022-07-10T02:14:19;15.80;99.90
16781;DHT22;8507;50.056;8.248;2022-07-10T02:16:45;15.80;99.90
16781;DHT22;8507;50.056;8.248;2022-07-10T02:19:10;15.90;99.90
16781;DHT22;8507;50.056;8.248;2022-07-10T02:21:36;15.80;99.90
16781;DHT22;8507;50.056;8.248;2022-07-10T02:24:02;15.80;99.90
16781;DHT22;8507;50.056;8.248;2022-07-10T02:26:28;15.60;99.90
16781;DHT22;8507;50.056;8.248;2022-07-10T02:28:53;15.60;99.90
16781;DHT22;8507;50.056;8.248;2022-07-10T02:31:19;15.60;99.90
16781;DHT22;8507;50.056;8.248;2022-07-10T02:33:44;15.70;99.90
16781;DHT22;8507;50.056;8.248;2022-07-10T02:36:10;15.80;99.90
16781;DHT22;8507;50.056;8.248;2022-07-10T02:38:35;15.70;99.90
16781;DHT22;8507;50.056;8.248;2022-07-10T02:41:01;15.70;99.90
16781;DHT22;8507;50.056;8.248;2022-07-10T02:43:26;15.80;99.90
16781;DHT22;8507;50.056;8.248;2022-07-10T02:45:52;15.80;99.90
16781;DHT22;8507;50.056;8.248;2022-07-10T02:48:17;15.70;99.90
16781;DHT22;8507;50.056;8.248;2022-07-10T02:50:44;15.60;99.90
16781;DHT22;8507;50.056;8.248;2022-07-10T02:53:10;15.60;99.90
16781;DHT22;8507;50.056;8.248;2022-07-10T02:55:35;15.60;99.90
16781;DHT22;8507;50.056;8.248;2022-07-10T02:58:01;15.40;99.90
16781;DHT22;8507;50.056;8.248;2022-07-10T03:00:27;15.40;99.90
16781;DHT22;8507;50.056;8.248;2022-07-10T03:02:53;15.30;99.90
16781;DHT22;8507;50.056;8.248;2022-07-10T03:05:19;15.40;99.90
16781;DHT22;8507;50.056;8.248;2022-07-10T03:07:45;15.20;99.90
16781;DHT22;8507;50.056;8.248;2022-07-10T03:10:10;15.10;99.90
16781;DHT22;8507;50.056;8.248;2022-07-10T03:12:36;15.00;99.90
16781;DHT22;8507;50.056;8.248;2022-07-10T03:15:03;15.10;99.90
16781;DHT22;8507;50.056;8.248;2022-07-10T03:17:29;14.60;99.90
16781;DHT22;8507;50.056;8.248;2022-07-10T03:19:54;14.70;99.90
16781;DHT22;8507;50.056;8.248;2022-07-10T03:22:20;14.70;99.90
16781;DHT22;8507;50.056;8.248;2022-07-10T03:24:46;14.50;99.90
16781;DHT22;8507;50.056;8.248;2022-07-10T03:27:12;14.60;99.90
16781;DHT22;8507;50.056;8.248;2022-07-10T03:29:39;14.60;99.90
16781;DHT22;8507;50.056;8.248;2022-07-10T03:32:05;14.50;99.90
16781;DHT22;8507;50.056;8.248;2022-07-10T03:34:30;14.50;99.90
16781;DHT22;8507;50.056;8.248;2022-07-10T03:36:58;14.50;99.90
16781;DHT22;8507;50.056;8.248;2022-07-10T03:39:23;14.30;99.90
16781;DHT22;8507;50.056;8.248;2022-07-10T03:41:49;14.20;99.90
16781;DHT22;8507;50.056;8.248;2022-07-10T03:44:14;14.20;99.90
16781;DHT22;8507;50.056;8.248;2022-07-10T03:46:40;14.20;99.90
16781;DHT22;8507;50.056;8.248;2022-07-10T03:49:05;14.50;99.90
16781;DHT22;8507;50.056;8.248;2022-07-10T03:51:31;15.10;99.90
16781;DHT22;8507;50.056;8.248;2022-07-10T03:53:56;15.80;99.90
16781;DHT22;8507;50.056;8.248;2022-07-10T03:56:22;16.80;99.90
16781;DHT22;8507;50.056;8.248;2022-07-10T03:59:06;17.50;99.90
16781;DHT22;8507;50.056;8.248;2022-07-10T04:01:31;18.20;99.90
16781;DHT22;8507;50.056;8.248;2022-07-10T04:03:57;19.00;99.90
16781;DHT22;8507;50.056;8.248;2022-07-10T04:06:22;19.50;99.90
16781;DHT22;8507;50.056;8.248;2022-07-10T04:08:48;20.20;99.90
16781;DHT22;8507;50.056;8.248;2022-07-10T04:11:13;20.10;99.90
16781;DHT22;8507;50.056;8.248;2022-07-10T04:13:39;20.60;99.90
16781;DHT22;8507;50.056;8.248;2022-07-10T04:16:05;21.30;99.90
16781;DHT22;8507;50.056;8.248;2022-07-10T04:18:31;21.60;99.90
16781;DHT22;8507;50.056;8.248;2022-07-10T04:20:56;22.00;99.90
16781;DHT22;8507;50.056;8.248;2022-07-10T04:23:22;21.70;99.90
16781;DHT22;8507;50.056;8.248;2022-07-10T04:25:47;21.60;99.90
16781;DHT22;8507;50.056;8.248;2022-07-10T04:28:13;21.50;99.90
16781;DHT22;8507;50.056;8.248;2022-07-10T04:30:38;19.80;99.90
16781;DHT22;8507;50.056;8.248;2022-07-10T04:33:04;18.60;99.90
16781;DHT22;8507;50.056;8.248;2022-07-10T04:35:29;17.50;99.90
16781;DHT22;8507;50.056;8.248;2022-07-10T04:37:55;16.70;99.90
16781;DHT22;8507;50.056;8.248;2022-07-10T04:40:20;16.20;99.90
16781;DHT22;8507;50.056;8.248;2022-07-10T04:42:46;16.20;99.90
16781;DHT22;8507;50.056;8.248;2022-07-10T04:45:11;16.10;99.90
16781;DHT22;8507;50.056;8.248;2022-07-10T04:47:37;16.10;99.90
16781;DHT22;8507;50.056;8.248;2022-07-10T04:50:02;16.20;99.90
16781;DHT22;8507;50.056;8.248;2022-07-10T04:52:28;16.10;99.90
16781;DHT22;8507;50.056;8.248;2022-07-10T04:54:54;15.90;99.90
16781;DHT22;8507;50.056;8.248;2022-07-10T04:57:19;16.10;99.90
16781;DHT22;8507;50.056;8.248;2022-07-10T04:59:45;16.00;99.90
16781;DHT22;8507;50.056;8.248;2022-07-10T05:02:10;16.10;99.90
16781;DHT22;8507;50.056;8.248;2022-07-10T05:04:36;15.80;99.90
16781;DHT22;8507;50.056;8.248;2022-07-10T05:07:01;15.90;99.90
16781;DHT22;8507;50.056;8.248;2022-07-10T05:09:27;16.00;99.90
16781;DHT22;8507;50.056;8.248;2022-07-10T05:11:52;15.80;99.90
16781;DHT22;8507;50.056;8.248;2022-07-10T05:14:19;15.90;99.90
16781;DHT22;8507;50.056;8.248;2022-07-10T05:16:44;15.60;99.90
16781;DHT22;8507;50.056;8.248;2022-07-10T05:19:10;15.70;99.90
16781;DHT22;8507;50.056;8.248;2022-07-10T05:21:35;16.10;99.90
16781;DHT22;8507;50.056;8.248;2022-07-10T05:24:01;16.20;99.90
16781;DHT22;8507;50.056;8.248;2022-07-10T05:26:27;16.20;99.90
16781;DHT22;8507;50.056;8.248;2022-07-10T05:28:52;16.10;99.90
16781;DHT22;8507;50.056;8.248;2022-07-10T05:31:18;16.10;99.90
16781;DHT22;8507;50.056;8.248;2022-07-10T05:33:43;16.50;99.90
16781;DHT22;8507;50.056;8.248;2022-07-10T05:36:09;16.50;99.90
16781;DHT22;8507;50.056;8.248;2022-07-10T05:38:35;16.50;99.90
16781;DHT22;8507;50.056;8.248;2022-07-10T05:41:00;16.70;99.90
16781;DHT22;8507;50.056;8.248;2022-07-10T05:43:26;16.60;99.90
16781;DHT22;8507;50.056;8.248;2022-07-10T05:45:53;16.70;99.90
16781;DHT22;8507;50.056;8.248;2022-07-10T05:48:18;16.80;99.90
16781;DHT22;8507;50.056;8.248;2022-07-10T05:50:45;16.70;99.90
16781;DHT22;8507;50.056;8.248;2022-07-10T05:53:10;16.50;99.90
16781;DHT22;8507;50.056;8.248;2022-07-10T05:55:36;16.10;99.90
16781;DHT22;8507;50.056;8.248;2022-07-10T05:58:01;16.20;99.90
16781;DHT22;8507;50.056;8.248;2022-07-10T06:00:27;16.10;99.90
16781;DHT22;8507;50.056;8.248;2022-07-10T06:02:53;16.30;99.90
16781;DHT22;8507;50.056;8.248;2022-07-10T06:05:18;16.60;99.90
16781;DHT22;8507;50.056;8.248;2022-07-10T06:07:44;16.70;99.90
16781;DHT22;8507;50.056;8.248;2022-07-10T06:10:09;16.80;99.90
16781;DHT22;8507;50.056;8.248;2022-07-10T06:12:35;16.60;99.90
16781;DHT22;8507;50.056;8.248;2022-07-10T06:15:03;16.30;99.90
16781;DHT22;8507;50.056;8.248;2022-07-10T06:17:28;15.90;99.90
16781;DHT22;8507;50.056;8.248;2022-07-10T06:19:54;16.00;99.90
16781;DHT22;8507;50.056;8.248;2022-07-10T06:22:20;16.40;99.90
16781;DHT22;8507;50.056;8.248;2022-07-10T06:25:02;16.30;99.90
16781;DHT22;8507;50.056;8.248;2022-07-10T06:27:28;16.20;99.90
16781;DHT22;8507;50.056;8.248;2022-07-10T06:29:54;16.40;99.90
16781;DHT22;8507;50.056;8.248;2022-07-10T06:32:21;16.50;99.90
16781;DHT22;8507;50.056;8.248;2022-07-10T06:34:47;16.40;99.90
16781;DHT22;8507;50.056;8.248;2022-07-10T06:37:12;16.60;99.90
16781;DHT22;8507;50.056;8.248;2022-07-10T06:39:38;16.40;99.90
16781;DHT22;8507;50.056;8.248;2022-07-10T06:42:05;16.60;99.90
16781;DHT22;8507;50.056;8.248;2022-07-10T06:44:31;16.80;99.90
16781;DHT22;8507;50.056;8.248;2022-07-10T06:46:57;16.60;99.90
16781;DHT22;8507;50.056;8.248;2022-07-10T06:49:42;16.60;99.90
16781;DHT22;8507;50.056;8.248;2022-07-10T06:52:09;17.10;99.90
16781;DHT22;8507;50.056;8.248;2022-07-10T06:54:35;17.20;99.90
16781;DHT22;8507;50.056;8.248;2022-07-10T06:57:01;16.50;99.90
16781;DHT22;8507;50.056;8.248;2022-07-10T06:59:26;16.70;99.90
16781;DHT22;8507;50.056;8.248;2022-07-10T07:01:52;16.50;99.90
16781;DHT22;8507;50.056;8.248;2022-07-10T07:04:18;16.40;99.90
16781;DHT22;8507;50.056;8.248;2022-07-10T07:06:43;16.40;99.90
16781;DHT22;8507;50.056;8.248;2022-07-10T07:09:09;16.10;99.90
16781;DHT22;8507;50.056;8.248;2022-07-10T07:11:34;16.50;99.90
16781;DHT22;8507;50.056;8.248;2022-07-10T07:14:00;16.40;99.90
16781;DHT22;8507;50.056;8.248;2022-07-10T07:16:25;16.40;99.90
16781;DHT22;8507;50.056;8.248;2022-07-10T07:19:04;16.50;99.90
16781;DHT22;8507;50.056;8.248;2022-07-10T07:21:31;16.90;99.90
16781;DHT22;8507;50.056;8.248;2022-07-10T07:24:15;17.40;99.90
16781;DHT22;8507;50.056;8.248;2022-07-10T07:26:47;17.50;99.90
16781;DHT22;8507;50.056;8.248;2022-07-10T07:29:16;17.60;99.90
16781;DHT22;8507;50.056;8.248;2022-07-10T07:31:42;17.70;99.90
16781;DHT22;8507;50.056;8.248;2022-07-10T07:34:08;17.10;99.90
16781;DHT22;8507;50.056;8.248;2022-07-10T07:36:34;16.90;99.90
16781;DHT22;8507;50.056;8.248;2022-07-10T07:39:00;17.40;99.90
16781;DHT22;8507;50.056;8.248;2022-07-10T07:41:25;17.70;99.90
16781;DHT22;8507;50.056;8.248;2022-07-10T07:43:51;17.80;99.90
16781;DHT22;8507;50.056;8.248;2022-07-10T07:46:18;17.10;99.90
16781;DHT22;8507;50.056;8.248;2022-07-10T07:48:43;17.40;99.90
16781;DHT22;8507;50.056;8.248;2022-07-10T07:51:09;17.80;99.90
16781;DHT22;8507;50.056;8.248;2022-07-10T07:53:35;17.80;99.90
16781;DHT22;8507;50.056;8.248;2022-07-10T07:56:00;18.20;99.90
16781;DHT22;8507;50.056;8.248;2022-07-10T07:58:26;18.40;99.90
16781;DHT22;8507;50.056;8.248;2022-07-10T08:00:52;19.00;99.90
16781;DHT22;8507;50.056;8.248;2022-07-10T08:03:17;18.90;99.90
16781;DHT22;8507;50.056;8.248;2022-07-10T08:05:43;18.40;99.90
16781;DHT22;8507;50.056;8.248;2022-07-10T08:08:08;18.10;99.90
16781;DHT22;8507;50.056;8.248;2022-07-10T08:10:36;18.40;99.90
16781;DHT22;8507;50.056;8.248;2022-07-10T08:13:02;18.60;99.90
16781;DHT22;8507;50.056;8.248;2022-07-10T08:15:29;18.40;99.90
16781;DHT22;8507;50.056;8.248;2022-07-10T08:17:56;18.40;99.90
16781;DHT22;8507;50.056;8.248;2022-07-10T08:20:23;18.00;99.90
16781;DHT22;8507;50.056;8.248;2022-07-10T08:22:49;18.00;99.90
16781;DHT22;8507;50.056;8.248;2022-07-10T08:25:15;17.80;99.90
16781;DHT22;8507;50.056;8.248;2022-07-10T08:27:41;17.50;99.90
16781;DHT22;8507;50.056;8.248;2022-07-10T08:30:08;17.80;99.90
16781;DHT22;8507;50.056;8.248;2022-07-10T08:32:35;18.00;99.90
16781;DHT22;8507;50.056;8.248;2022-07-10T08:35:01;18.10;99.90
16781;DHT22;8507;50.056;8.248;2022-07-10T08:37:27;18.40;99.90
16781;DHT22;8507;50.056;8.248;2022-07-10T08:39:52;19.10;99.90
16781;DHT22;8507;50.056;8.248;2022-07-10T08:42:18;19.10;99.90
16781;DHT22;8507;50.056;8.248;2022-07-10T08:44:44;19.70;99.90
16781;DHT22;8507;50.056;8.248;2022-07-10T08:47:10;20.20;99.90
16781;DHT22;8507;50.056;8.248;2022-07-10T08:49:46;20.30;99.90
16781;DHT22;8507;50.056;8.248;2022-07-10T08:52:27;20.60;99.90
16781;DHT22;8507;50.056;8.248;2022-07-10T08:54:54;20.60;99.90
16781;DHT22;8507;50.056;8.248;2022-07-10T08:57:22;20.10;99.90
16781;DHT22;8507;50.056;8.248;2022-07-10T08:59:48;19.10;99.90
16781;DHT22;8507;50.056;8.248;2022-07-10T09:02:13;19.00;99.90
16781;DHT22;8507;50.056;8.248;2022-07-10T09:04:39;18.70;99.90
16781;DHT22;8507;50.056;8.248;2022-07-10T09:07:04;19.10;99.90
16781;DHT22;8507;50.056;8.248;2022-07-10T09:09:30;19.10;99.90
16781;DHT22;8507;50.056;8.248;2022-07-10T09:11:57;19.50;99.90
16781;DHT22;8507;50.056;8.248;2022-07-10T09:14:24;19.40;99.90
16781;DHT22;8507;50.056;8.248;2022-07-10T09:16:51;19.70;99.90
16781;DHT22;8507;50.056;8.248;2022-07-10T09:21:52;19.30;99.90
16781;DHT22;8507;50.056;8.248;2022-07-10T09:24:18;19.30;99.90
16781;DHT22;8507;50.056;8.248;2022-07-10T09:27:00;19.20;99.90
16781;DHT22;8507;50.056;8.248;2022-07-10T09:29:28;19.90;99.90
16781;DHT22;8507;50.056;8.248;2022-07-10T09:31:56;19.70;99.90
16781;DHT22;8507;50.056;8.248;2022-07-10T09:34:42;19.70;99.90
16781;DHT22;8507;50.056;8.248;2022-07-10T09:37:25;20.30;99.90
16781;DHT22;8507;50.056;8.248;2022-07-10T09:40:03;19.80;99.90
16781;DHT22;8507;50.056;8.248;2022-07-10T09:42:42;19.90;99.90
16781;DHT22;8507;50.056;8.248;2022-07-10T09:47:53;19.10;99.90
16781;DHT22;8507;50.056;8.248;2022-07-10T09:52:46;19.00;99.90
16781;DHT22;8507;50.056;8.248;2022-07-10T09:55:13;19.30;99.90
16781;DHT22;8507;50.056;8.248;2022-07-10T09:57:40;19.20;99.90
16781;DHT22;8507;50.056;8.248;2022-07-10T10:00:08;18.80;99.90
16781;DHT22;8507;50.056;8.248;2022-07-10T10:02:35;19.50;99.90
16781;DHT22;8507;50.056;8.248;2022-07-10T10:05:01;20.00;99.90
16781;DHT22;8507;50.056;8.248;2022-07-10T10:07:27;19.70;99.90
16781;DHT22;8507;50.056;8.248;2022-07-10T10:09:53;20.20;99.90
16781;DHT22;8507;50.056;8.248;2022-07-10T10:12:31;20.40;99.90
16781;DHT22;8507;50.056;8.248;2022-07-10T10:15:01;20.20;99.90
16781;DHT22;8507;50.056;8.248;2022-07-10T10:17:28;20.40;99.90
16781;DHT22;8507;50.056;8.248;2022-07-10T10:19:54;20.90;99.90
16781;DHT22;8507;50.056;8.248;2022-07-10T10:22:44;20.60;99.90
16781;DHT22;8507;50.056;8.248;2022-07-10T10:25:12;20.90;99.90
16781;DHT22;8507;50.056;8.248;2022-07-10T10:27:39;20.60;99.90
16781;DHT22;8507;50.056;8.248;2022-07-10T10:30:06;21.10;99.90
16781;DHT22;8507;50.056;8.248;2022-07-10T10:32:31;21.40;99.90
16781;DHT22;8507;50.056;8.248;2022-07-10T10:34:58;21.30;99.90
16781;DHT22;8507;50.056;8.248;2022-07-10T10:37:51;20.80;99.90
16781;DHT22;8507;50.056;8.248;2022-07-10T10:40:34;21.00;99.90
16781;DHT22;8507;50.056;8.248;2022-07-10T10:43:22;21.10;99.90
16781;DHT22;8507;50.056;8.248;2022-07-10T10:45:51;21.00;99.90
16781;DHT22;8507;50.056;8.248;2022-07-10T10:48:20;21.30;99.90
16781;DHT22;8507;50.056;8.248;2022-07-10T10:50:55;21.70;99.90
16781;DHT22;8507;50.056;8.248;2022-07-10T10:53:28;22.00;99.90
16781;DHT22;8507;50.056;8.248;2022-07-10T10:58:39;22.10;99.90
16781;DHT22;8507;50.056;8.248;2022-07-10T11:01:06;22.50;99.90
16781;DHT22;8507;50.056;8.248;2022-07-10T11:06:51;22.10;99.90
16781;DHT22;8507;50.056;8.248;2022-07-10T11:12:06;22.00;99.90
16781;DHT22;8507;50.056;8.248;2022-07-10T11:14:37;21.60;99.90
16781;DHT22;8507;50.056;8.248;2022-07-10T11:17:05;21.20;99.90
16781;DHT22;8507;50.056;8.248;2022-07-10T11:19:32;21.10;99.90
16781;DHT22;8507;50.056;8.248;2022-07-10T11:22:18;21.70;99.90
16781;DHT22;8507;50.056;8.248;2022-07-10T11:28:03;22.20;99.90
16781;DHT22;8507;50.056;8.248;2022-07-10T11:30:49;21.70;99.90
16781;DHT22;8507;50.056;8.248;2022-07-10T11:33:15;21.40;99.90
16781;DHT22;8507;50.056;8.248;2022-07-10T11:35:44;20.90;99.90
16781;DHT22;8507;50.056;8.248;2022-07-10T11:38:10;21.30;99.90
16781;DHT22;8507;50.056;8.248;2022-07-10T11:40:36;21.00;99.90
16781;DHT22;8507;50.056;8.248;2022-07-10T11:43:03;20.30;99.90
16781;DHT22;8507;50.056;8.248;2022-07-10T11:45:32;20.80;99.90
16781;DHT22;8507;50.056;8.248;2022-07-10T11:47:59;21.20;99.90
16781;DHT22;8507;50.056;8.248;2022-07-10T11:50:26;21.70;99.90
16781;DHT22;8507;50.056;8.248;2022-07-10T11:52:52;21.80;99.90
16781;DHT22;8507;50.056;8.248;2022-07-10T11:55:23;22.10;99.90
16781;DHT22;8507;50.056;8.248;2022-07-10T11:57:52;22.10;99.90
16781;DHT22;8507;50.056;8.248;2022-07-10T12:00:29;21.60;99.90
16781;DHT22;8507;50.056;8.248;2022-07-10T12:02:56;21.50;99.90
16781;DHT22;8507;50.056;8.248;2022-07-10T12:05:49;21.60;99.90
16781;DHT22;8507;50.056;8.248;2022-07-10T12:08:17;21.90;99.90
16781;DHT22;8507;50.056;8.248;2022-07-10T12:10:42;22.60;99.90
16781;DHT22;8507;50.056;8.248;2022-07-10T12:13:09;23.10;99.90
16781;DHT22;8507;50.056;8.248;2022-07-10T12:15:38;23.10;99.90
16781;DHT22;8507;50.056;8.248;2022-07-10T12:18:08;22.20;99.90
16781;DHT22;8507;50.056;8.248;2022-07-10T12:20:35;22.10;99.90
16781;DHT22;8507;50.056;8.248;2022-07-10T12:23:03;22.30;99.90
16781;DHT22;8507;50.056;8.248;2022-07-10T12:25:30;22.70;99.90
16781;DHT22;8507;50.056;8.248;2022-07-10T12:27:57;22.10;99.90
16781;DHT22;8507;50.056;8.248;2022-07-10T12:30:40;21.50;99.90
16781;DHT22;8507;50.056;8.248;2022-07-10T12:33:13;21.60;99.90
16781;DHT22;8507;50.056;8.248;2022-07-10T12:36:08;21.40;99.90
16781;DHT22;8507;50.056;8.248;2022-07-10T12:38:34;22.30;99.90
16781;DHT22;8507;50.056;8.248;2022-07-10T12:41:08;22.00;99.90
16781;DHT22;8507;50.056;8.248;2022-07-10T12:43:34;22.10;99.90
16781;DHT22;8507;50.056;8.248;2022-07-10T12:46:14;22.30;99.90
16781;DHT22;8507;50.056;8.248;2022-07-10T12:49:01;22.60;99.90
16781;DHT22;8507;50.056;8.248;2022-07-10T12:51:29;22.30;99.90
16781;DHT22;8507;50.056;8.248;2022-07-10T12:53:55;21.50;99.90
16781;DHT22;8507;50.056;8.248;2022-07-10T12:56:36;21.20;99.90
16781;DHT22;8507;50.056;8.248;2022-07-10T12:59:05;20.90;99.90
16781;DHT22;8507;50.056;8.248;2022-07-10T13:01:43;21.10;99.90
16781;DHT22;8507;50.056;8.248;2022-07-10T13:04:09;21.40;99.90
16781;DHT22;8507;50.056;8.248;2022-07-10T13:06:36;22.10;99.90
16781;DHT22;8507;50.056;8.248;2022-07-10T13:09:23;22.20;99.90
16781;DHT22;8507;50.056;8.248;2022-07-10T13:11:53;23.20;99.90
16781;DHT22;8507;50.056;8.248;2022-07-10T13:14:19;23.50;99.90
16781;DHT22;8507;50.056;8.248;2022-07-10T13:16:45;23.30;99.90
16781;DHT22;8507;50.056;8.248;2022-07-10T13:19:11;23.50;99.90
16781;DHT22;8507;50.056;8.248;2022-07-10T13:21:36;23.30;99.90
16781;DHT22;8507;50.056;8.248;2022-07-10T13:24:03;23.20;99.90
16781;DHT22;8507;50.056;8.248;2022-07-10T13:26:29;23.50;99.90
16781;DHT22;8507;50.056;8.248;2022-07-10T13:28:56;23.70;99.90
16781;DHT22;8507;50.056;8.248;2022-07-10T13:31:22;23.30;99.90
16781;DHT22;8507;50.056;8.248;2022-07-10T13:33:48;23.00;99.90
16781;DHT22;8507;50.056;8.248;2022-07-10T13:36:13;22.60;99.90
16781;DHT22;8507;50.056;8.248;2022-07-10T13:38:39;22.90;99.90
16781;DHT22;8507;50.056;8.248;2022-07-10T13:41:05;22.50;99.90
16781;DHT22;8507;50.056;8.248;2022-07-10T13:43:31;22.60;99.90
16781;DHT22;8507;50.056;8.248;2022-07-10T13:45:57;22.70;99.90
16781;DHT22;8507;50.056;8.248;2022-07-10T13:48:24;23.10;99.90
16781;DHT22;8507;50.056;8.248;2022-07-10T13:50:50;23.10;99.90
16781;DHT22;8507;50.056;8.248;2022-07-10T13:53:19;23.10;99.90
16781;DHT22;8507;50.056;8.248;2022-07-10T13:55:45;23.30;99.90
16781;DHT22;8507;50.056;8.248;2022-07-10T13:58:11;22.60;99.90
16781;DHT22;8507;50.056;8.248;2022-07-10T14:00:38;21.70;99.90
16781;DHT22;8507;50.056;8.248;2022-07-10T14:03:04;22.20;99.90
16781;DHT22;8507;50.056;8.248;2022-07-10T14:05:31;22.30;99.90
16781;DHT22;8507;50.056;8.248;2022-07-10T14:07:58;22.50;99.90
16781;DHT22;8507;50.056;8.248;2022-07-10T14:10:23;22.60;99.90
16781;DHT22;8507;50.056;8.248;2022-07-10T14:12:51;22.90;99.90
16781;DHT22;8507;50.056;8.248;2022-07-10T14:15:16;22.60;99.90
16781;DHT22;8507;50.056;8.248;2022-07-10T14:17:42;22.00;99.90
16781;DHT22;8507;50.056;8.248;2022-07-10T14:20:09;21.40;99.90
16781;DHT22;8507;50.056;8.248;2022-07-10T14:22:35;21.80;99.90
16781;DHT22;8507;50.056;8.248;2022-07-10T14:25:01;21.90;99.90
16781;DHT22;8507;50.056;8.248;2022-07-10T14:27:27;21.70;99.90
16781;DHT22;8507;50.056;8.248;2022-07-10T14:29:54;21.00;99.90
16781;DHT22;8507;50.056;8.248;2022-07-10T14:32:20;21.00;99.90
16781;DHT22;8507;50.056;8.248;2022-07-10T14:34:46;21.20;99.90
16781;DHT22;8507;50.056;8.248;2022-07-10T14:37:11;20.90;99.90
16781;DHT22;8507;50.056;8.248;2022-07-10T14:39:37;21.10;99.90
16781;DHT22;8507;50.056;8.248;2022-07-10T14:42:03;20.60;99.90
16781;DHT22;8507;50.056;8.248;2022-07-10T14:44:30;20.70;99.90
16781;DHT22;8507;50.056;8.248;2022-07-10T14:46:57;21.10;99.90
16781;DHT22;8507;50.056;8.248;2022-07-10T14:49:23;21.50;99.90
16781;DHT22;8507;50.056;8.248;2022-07-10T14:51:48;21.90;99.90
16781;DHT22;8507;50.056;8.248;2022-07-10T14:54:14;21.80;99.90
16781;DHT22;8507;50.056;8.248;2022-07-10T14:56:40;21.80;99.90
16781;DHT22;8507;50.056;8.248;2022-07-10T14:59:06;22.10;99.90
16781;DHT22;8507;50.056;8.248;2022-07-10T15:01:31;22.30;99.90
16781;DHT22;8507;50.056;8.248;2022-07-10T15:03:57;22.20;99.90
16781;DHT22;8507;50.056;8.248;2022-07-10T15:06:23;22.10;99.90
16781;DHT22;8507;50.056;8.248;2022-07-10T15:08:49;21.70;99.90
16781;DHT22;8507;50.056;8.248;2022-07-10T15:11:16;21.70;99.90
16781;DHT22;8507;50.056;8.248;2022-07-10T15:13:42;21.20;99.90
16781;DHT22;8507;50.056;8.248;2022-07-10T15:16:08;21.10;99.90
16781;DHT22;8507;50.056;8.248;2022-07-10T15:18:33;21.60;99.90
16781;DHT22;8507;50.056;8.248;2022-07-10T15:20:59;21.50;99.90
16781;DHT22;8507;50.056;8.248;2022-07-10T15:23:25;21.60;99.90
16781;DHT22;8507;50.056;8.248;2022-07-10T15:25:53;22.00;99.90
16781;DHT22;8507;50.056;8.248;2022-07-10T15:28:18;22.30;99.90
16781;DHT22;8507;50.056;8.248;2022-07-10T15:30:44;22.50;99.90
16781;DHT22;8507;50.056;8.248;2022-07-10T15:33:10;22.70;99.90
16781;DHT22;8507;50.056;8.248;2022-07-10T15:35:36;22.90;99.90
16781;DHT22;8507;50.056;8.248;2022-07-10T15:38:01;23.00;99.90
16781;DHT22;8507;50.056;8.248;2022-07-10T15:40:29;23.00;99.90
16781;DHT22;8507;50.056;8.248;2022-07-10T15:42:56;21.90;99.90
16781;DHT22;8507;50.056;8.248;2022-07-10T15:45:22;21.80;99.90
16781;DHT22;8507;50.056;8.248;2022-07-10T15:47:48;22.30;99.90
16781;DHT22;8507;50.056;8.248;2022-07-10T15:50:14;22.30;99.90
16781;DHT22;8507;50.056;8.248;2022-07-10T15:52:39;22.50;99.90
16781;DHT22;8507;50.056;8.248;2022-07-10T15:55:05;21.90;99.90
16781;DHT22;8507;50.056;8.248;2022-07-10T15:57:30;21.70;99.90
16781;DHT22;8507;50.056;8.248;2022-07-10T15:59:56;21.80;99.90
16781;DHT22;8507;50.056;8.248;2022-07-10T16:02:22;21.40;99.90
16781;DHT22;8507;50.056;8.248;2022-07-10T16:04:47;21.30;99.90
16781;DHT22;8507;50.056;8.248;2022-07-10T16:07:13;21.00;99.90